Calpine, California
Current Conditions -  °F | °C
As of 11:45 AM on Tuesday 21 Oct 2014 (Local Time) from KTRK Reporting Station
Few Clouds Few Clouds  
Wind Chill: 46°   Ceiling: Unl
Heat Index: 46°   Visibility: 10mi
Dew Point: 27°   Wind: 0mph
Humidity: 46%   Direction: NA
Pressure: 30.13"   Gusts: NA
Location:  39.67°N, 120.44°W
Report Text: KTRK 211845Z 00000KT 10SM FEW200 08/M03 A3013 RMK NOSPECI
Loading
Personal Weather Stations






























Interactive Weather Map
Tropical Storm Tracking
New forecast layout! Learn more

10-Day Weather Forecast

Advertisements
Track Severe Weather on mobile